sensor_id;sensor_type;location;lat;lon;timestamp;temperature;humidity
21487;DHT22;10905;50.822;4.336;2022-09-09T00:00:43;16.30;99.90
21487;DHT22;10905;50.822;4.336;2022-09-09T00:03:12;16.30;99.90
21487;DHT22;10905;50.822;4.336;2022-09-09T00:08:21;16.30;99.90
21487;DHT22;10905;50.822;4.336;2022-09-09T00:10:53;16.30;99.90
21487;DHT22;10905;50.822;4.336;2022-09-09T00:13:40;16.30;99.90
21487;DHT22;10905;50.822;4.336;2022-09-09T00:18:44;16.20;99.90
21487;DHT22;10905;50.822;4.336;2022-09-09T00:21:15;16.20;99.90
21487;DHT22;10905;50.822;4.336;2022-09-09T00:23:45;16.10;99.90
21487;DHT22;10905;50.822;4.336;2022-09-09T00:26:27;16.10;99.90
21487;DHT22;10905;50.822;4.336;2022-09-09T00:31:23;16.10;99.90
21487;DHT22;10905;50.822;4.336;2022-09-09T00:33:50;16.20;99.90
21487;DHT22;10905;50.822;4.336;2022-09-09T00:36:17;16.20;99.90
21487;DHT22;10905;50.822;4.336;2022-09-09T00:38:51;16.40;99.90
21487;DHT22;10905;50.822;4.336;2022-09-09T00:44:14;16.20;99.90
21487;DHT22;10905;50.822;4.336;2022-09-09T00:51:57;16.30;99.90
21487;DHT22;10905;50.822;4.336;2022-09-09T00:57:10;16.20;99.90
21487;DHT22;10905;50.822;4.336;2022-09-09T01:05:45;16.30;99.90
21487;DHT22;10905;50.822;4.336;2022-09-09T01:08:15;16.40;99.90
21487;DHT22;10905;50.822;4.336;2022-09-09T01:10:49;16.40;99.90
21487;DHT22;10905;50.822;4.336;2022-09-09T01:13:19;16.50;99.90
21487;DHT22;10905;50.822;4.336;2022-09-09T01:15:45;16.50;99.90
21487;DHT22;10905;50.822;4.336;2022-09-09T01:18:13;16.60;99.90
21487;DHT22;10905;50.822;4.336;2022-09-09T01:20:44;16.50;99.90
21487;DHT22;10905;50.822;4.336;2022-09-09T01:28:28;16.40;99.90
21487;DHT22;10905;50.822;4.336;2022-09-09T01:30:54;16.40;99.90
21487;DHT22;10905;50.822;4.336;2022-09-09T01:33:21;16.40;99.90
21487;DHT22;10905;50.822;4.336;2022-09-09T01:36:00;16.40;99.90
21487;DHT22;10905;50.822;4.336;2022-09-09T01:38:27;16.40;99.90
21487;DHT22;10905;50.822;4.336;2022-09-09T01:40:53;16.30;99.90
21487;DHT22;10905;50.822;4.336;2022-09-09T01:43:22;16.30;99.90
21487;DHT22;10905;50.822;4.336;2022-09-09T01:45:49;16.20;99.90
21487;DHT22;10905;50.822;4.336;2022-09-09T01:48:16;16.30;99.90
21487;DHT22;10905;50.822;4.336;2022-09-09T01:50:43;16.30;99.90
21487;DHT22;10905;50.822;4.336;2022-09-09T01:53:08;16.40;99.90
21487;DHT22;10905;50.822;4.336;2022-09-09T01:55:38;16.40;99.90
21487;DHT22;10905;50.822;4.336;2022-09-09T02:00:35;16.40;99.90
21487;DHT22;10905;50.822;4.336;2022-09-09T02:03:11;16.40;99.90
21487;DHT22;10905;50.822;4.336;2022-09-09T02:05:41;16.50;99.90
21487;DHT22;10905;50.822;4.336;2022-09-09T02:08:14;16.30;99.90
21487;DHT22;10905;50.822;4.336;2022-09-09T02:10:42;16.30;99.90
21487;DHT22;10905;50.822;4.336;2022-09-09T02:13:11;16.30;99.90
21487;DHT22;10905;50.822;4.336;2022-09-09T02:15:40;16.30;99.90
21487;DHT22;10905;50.822;4.336;2022-09-09T02:18:08;16.30;99.90
21487;DHT22;10905;50.822;4.336;2022-09-09T02:20:38;16.30;99.90
21487;DHT22;10905;50.822;4.336;2022-09-09T02:23:05;16.30;99.90
21487;DHT22;10905;50.822;4.336;2022-09-09T02:25:30;16.30;99.90
21487;DHT22;10905;50.822;4.336;2022-09-09T02:27:58;16.30;99.90
21487;DHT22;10905;50.822;4.336;2022-09-09T02:30:24;16.30;99.90
21487;DHT22;10905;50.822;4.336;2022-09-09T02:32:50;16.20;99.90
21487;DHT22;10905;50.822;4.336;2022-09-09T02:35:19;16.30;99.90
21487;DHT22;10905;50.822;4.336;2022-09-09T02:37:45;16.30;99.90
21487;DHT22;10905;50.822;4.336;2022-09-09T02:40:11;16.40;99.90
21487;DHT22;10905;50.822;4.336;2022-09-09T02:42:41;16.40;99.90
21487;DHT22;10905;50.822;4.336;2022-09-09T02:45:09;16.40;99.90
21487;DHT22;10905;50.822;4.336;2022-09-09T02:47:36;16.30;99.90
21487;DHT22;10905;50.822;4.336;2022-09-09T02:50:08;16.30;99.90
21487;DHT22;10905;50.822;4.336;2022-09-09T02:52:38;16.40;99.90
21487;DHT22;10905;50.822;4.336;2022-09-09T02:55:08;16.40;99.90
21487;DHT22;10905;50.822;4.336;2022-09-09T02:57:36;16.40;99.90
21487;DHT22;10905;50.822;4.336;2022-09-09T03:00:03;16.30;99.90
21487;DHT22;10905;50.822;4.336;2022-09-09T03:02:28;16.30;99.90
21487;DHT22;10905;50.822;4.336;2022-09-09T03:04:54;16.30;99.90
21487;DHT22;10905;50.822;4.336;2022-09-09T03:07:20;16.30;99.90
21487;DHT22;10905;50.822;4.336;2022-09-09T03:09:45;16.40;99.90
21487;DHT22;10905;50.822;4.336;2022-09-09T03:12:11;16.50;99.90
21487;DHT22;10905;50.822;4.336;2022-09-09T03:14:37;16.30;99.90
21487;DHT22;10905;50.822;4.336;2022-09-09T03:17:03;16.30;99.90
21487;DHT22;10905;50.822;4.336;2022-09-09T03:19:29;16.40;99.90
21487;DHT22;10905;50.822;4.336;2022-09-09T03:21:55;16.30;99.90
21487;DHT22;10905;50.822;4.336;2022-09-09T03:24:20;16.30;99.90
21487;DHT22;10905;50.822;4.336;2022-09-09T03:26:46;16.20;99.90
21487;DHT22;10905;50.822;4.336;2022-09-09T03:29:12;16.30;99.90
21487;DHT22;10905;50.822;4.336;2022-09-09T03:31:38;16.30;99.90
21487;DHT22;10905;50.822;4.336;2022-09-09T03:34:03;16.30;99.90
21487;DHT22;10905;50.822;4.336;2022-09-09T03:36:29;16.30;99.90
21487;DHT22;10905;50.822;4.336;2022-09-09T03:38:55;16.20;99.90
21487;DHT22;10905;50.822;4.336;2022-09-09T03:41:21;16.20;99.90
21487;DHT22;10905;50.822;4.336;2022-09-09T03:43:52;16.30;99.90
21487;DHT22;10905;50.822;4.336;2022-09-09T03:46:19;16.20;99.90
21487;DHT22;10905;50.822;4.336;2022-09-09T03:48:44;16.30;99.90
21487;DHT22;10905;50.822;4.336;2022-09-09T03:51:10;16.30;99.90
21487;DHT22;10905;50.822;4.336;2022-09-09T03:53:35;16.30;99.90
21487;DHT22;10905;50.822;4.336;2022-09-09T03:56:03;16.40;99.90
21487;DHT22;10905;50.822;4.336;2022-09-09T03:58:32;16.30;99.90
21487;DHT22;10905;50.822;4.336;2022-09-09T04:01:08;16.30;99.90
21487;DHT22;10905;50.822;4.336;2022-09-09T04:03:34;16.30;99.90
21487;DHT22;10905;50.822;4.336;2022-09-09T04:06:00;16.30;99.90
21487;DHT22;10905;50.822;4.336;2022-09-09T04:08:27;16.30;99.90
21487;DHT22;10905;50.822;4.336;2022-09-09T04:10:53;16.40;99.90
21487;DHT22;10905;50.822;4.336;2022-09-09T04:13:18;16.30;99.90
21487;DHT22;10905;50.822;4.336;2022-09-09T04:15:51;16.40;99.90
21487;DHT22;10905;50.822;4.336;2022-09-09T04:18:17;16.40;99.90
21487;DHT22;10905;50.822;4.336;2022-09-09T04:20:42;16.40;99.90
21487;DHT22;10905;50.822;4.336;2022-09-09T04:23:08;16.40;99.90
21487;DHT22;10905;50.822;4.336;2022-09-09T04:25:34;16.40;99.90
21487;DHT22;10905;50.822;4.336;2022-09-09T04:27:59;16.40;99.90
21487;DHT22;10905;50.822;4.336;2022-09-09T04:30:25;16.40;99.90
21487;DHT22;10905;50.822;4.336;2022-09-09T04:32:52;16.30;99.90
21487;DHT22;10905;50.822;4.336;2022-09-09T04:35:18;16.30;99.90
21487;DHT22;10905;50.822;4.336;2022-09-09T04:37:45;16.20;99.90
21487;DHT22;10905;50.822;4.336;2022-09-09T04:40:11;16.30;99.90
21487;DHT22;10905;50.822;4.336;2022-09-09T04:42:36;16.30;99.90
21487;DHT22;10905;50.822;4.336;2022-09-09T04:45:02;16.30;99.90
21487;DHT22;10905;50.822;4.336;2022-09-09T04:47:27;16.30;99.90
21487;DHT22;10905;50.822;4.336;2022-09-09T04:49:53;16.30;99.90
21487;DHT22;10905;50.822;4.336;2022-09-09T04:52:20;16.30;99.90
21487;DHT22;10905;50.822;4.336;2022-09-09T04:54:45;16.20;99.90
21487;DHT22;10905;50.822;4.336;2022-09-09T04:57:11;16.20;99.90
21487;DHT22;10905;50.822;4.336;2022-09-09T04:59:36;16.20;99.90
21487;DHT22;10905;50.822;4.336;2022-09-09T05:02:02;16.30;99.90
21487;DHT22;10905;50.822;4.336;2022-09-09T05:04:29;16.30;99.90
21487;DHT22;10905;50.822;4.336;2022-09-09T05:06:55;16.30;99.90
21487;DHT22;10905;50.822;4.336;2022-09-09T05:09:20;16.20;99.90
21487;DHT22;10905;50.822;4.336;2022-09-09T05:11:46;16.30;99.90
21487;DHT22;10905;50.822;4.336;2022-09-09T05:14:11;16.20;99.90
21487;DHT22;10905;50.822;4.336;2022-09-09T05:16:37;16.30;99.90
21487;DHT22;10905;50.822;4.336;2022-09-09T05:19:02;16.30;99.90
21487;DHT22;10905;50.822;4.336;2022-09-09T05:21:28;16.30;99.90
21487;DHT22;10905;50.822;4.336;2022-09-09T05:23:54;16.40;99.90
21487;DHT22;10905;50.822;4.336;2022-09-09T05:26:20;16.40;99.90
21487;DHT22;10905;50.822;4.336;2022-09-09T05:28:46;16.50;99.90
21487;DHT22;10905;50.822;4.336;2022-09-09T05:31:12;16.50;99.90
21487;DHT22;10905;50.822;4.336;2022-09-09T05:33:38;16.60;99.90
21487;DHT22;10905;50.822;4.336;2022-09-09T05:36:07;16.70;99.90
21487;DHT22;10905;50.822;4.336;2022-09-09T05:38:33;16.70;99.90
21487;DHT22;10905;50.822;4.336;2022-09-09T05:40:59;16.60;99.90
21487;DHT22;10905;50.822;4.336;2022-09-09T05:43:25;16.60;99.90
21487;DHT22;10905;50.822;4.336;2022-09-09T05:46:01;16.60;99.90
21487;DHT22;10905;50.822;4.336;2022-09-09T05:48:30;16.60;99.90
21487;DHT22;10905;50.822;4.336;2022-09-09T05:50:57;16.60;99.90
21487;DHT22;10905;50.822;4.336;2022-09-09T05:53:23;16.60;99.90
21487;DHT22;10905;50.822;4.336;2022-09-09T05:55:48;16.60;99.90
21487;DHT22;10905;50.822;4.336;2022-09-09T05:58:14;16.60;99.90
21487;DHT22;10905;50.822;4.336;2022-09-09T06:00:40;16.60;99.90
21487;DHT22;10905;50.822;4.336;2022-09-09T06:03:06;16.60;99.90
21487;DHT22;10905;50.822;4.336;2022-09-09T06:05:31;16.70;99.90
21487;DHT22;10905;50.822;4.336;2022-09-09T06:07:57;16.80;99.90
21487;DHT22;10905;50.822;4.336;2022-09-09T06:10:22;16.80;99.90
21487;DHT22;10905;50.822;4.336;2022-09-09T06:12:48;16.90;99.90
21487;DHT22;10905;50.822;4.336;2022-09-09T06:15:16;17.00;99.90
21487;DHT22;10905;50.822;4.336;2022-09-09T06:17:42;17.00;99.90
21487;DHT22;10905;50.822;4.336;2022-09-09T06:20:08;17.10;99.90
21487;DHT22;10905;50.822;4.336;2022-09-09T06:22:34;17.00;99.90
21487;DHT22;10905;50.822;4.336;2022-09-09T06:25:00;17.00;99.90
21487;DHT22;10905;50.822;4.336;2022-09-09T06:27:27;16.90;99.90
21487;DHT22;10905;50.822;4.336;2022-09-09T06:29:52;16.80;99.90
21487;DHT22;10905;50.822;4.336;2022-09-09T06:32:18;16.90;99.90
21487;DHT22;10905;50.822;4.336;2022-09-09T06:34:43;17.00;99.90
21487;DHT22;10905;50.822;4.336;2022-09-09T06:37:10;17.10;99.90
21487;DHT22;10905;50.822;4.336;2022-09-09T06:39:36;17.10;99.90
21487;DHT22;10905;50.822;4.336;2022-09-09T06:42:01;17.00;99.90
21487;DHT22;10905;50.822;4.336;2022-09-09T06:44:27;17.10;99.90
21487;DHT22;10905;50.822;4.336;2022-09-09T06:46:53;17.20;99.90
21487;DHT22;10905;50.822;4.336;2022-09-09T06:49:18;17.20;99.90
21487;DHT22;10905;50.822;4.336;2022-09-09T06:51:44;17.10;99.90
21487;DHT22;10905;50.822;4.336;2022-09-09T06:54:09;17.20;99.90
21487;DHT22;10905;50.822;4.336;2022-09-09T06:56:36;17.30;99.90
21487;DHT22;10905;50.822;4.336;2022-09-09T06:59:03;17.30;99.90
21487;DHT22;10905;50.822;4.336;2022-09-09T07:01:30;17.40;99.90
21487;DHT22;10905;50.822;4.336;2022-09-09T07:03:57;17.50;99.90
21487;DHT22;10905;50.822;4.336;2022-09-09T07:08:56;17.40;99.90
21487;DHT22;10905;50.822;4.336;2022-09-09T07:11:24;17.40;99.90
21487;DHT22;10905;50.822;4.336;2022-09-09T07:13:51;17.40;99.90
21487;DHT22;10905;50.822;4.336;2022-09-09T07:16:17;17.50;99.90
21487;DHT22;10905;50.822;4.336;2022-09-09T07:18:43;17.50;99.90
21487;DHT22;10905;50.822;4.336;2022-09-09T07:21:13;17.50;99.90
21487;DHT22;10905;50.822;4.336;2022-09-09T07:23:39;17.60;99.90
21487;DHT22;10905;50.822;4.336;2022-09-09T07:26:11;17.70;99.90
21487;DHT22;10905;50.822;4.336;2022-09-09T07:28:37;17.70;99.90
21487;DHT22;10905;50.822;4.336;2022-09-09T07:31:03;17.70;99.90
21487;DHT22;10905;50.822;4.336;2022-09-09T07:33:30;17.70;99.90
21487;DHT22;10905;50.822;4.336;2022-09-09T07:36:03;17.70;99.90
21487;DHT22;10905;50.822;4.336;2022-09-09T07:38:29;17.70;99.90
21487;DHT22;10905;50.822;4.336;2022-09-09T07:41:05;17.60;99.90
21487;DHT22;10905;50.822;4.336;2022-09-09T07:43:32;17.50;99.90
21487;DHT22;10905;50.822;4.336;2022-09-09T07:45:58;17.40;99.90
21487;DHT22;10905;50.822;4.336;2022-09-09T07:48:24;17.30;99.90
21487;DHT22;10905;50.822;4.336;2022-09-09T07:50:50;17.40;99.90
21487;DHT22;10905;50.822;4.336;2022-09-09T07:53:16;17.40;99.90
21487;DHT22;10905;50.822;4.336;2022-09-09T07:55:41;17.40;99.90
21487;DHT22;10905;50.822;4.336;2022-09-09T07:58:08;17.40;99.90
21487;DHT22;10905;50.822;4.336;2022-09-09T08:00:33;17.50;99.90
21487;DHT22;10905;50.822;4.336;2022-09-09T08:02:58;17.60;99.90
21487;DHT22;10905;50.822;4.336;2022-09-09T08:05:27;17.70;99.90
21487;DHT22;10905;50.822;4.336;2022-09-09T08:07:52;17.70;99.90
21487;DHT22;10905;50.822;4.336;2022-09-09T08:10:18;17.70;99.90
21487;DHT22;10905;50.822;4.336;2022-09-09T08:12:43;17.80;99.90
21487;DHT22;10905;50.822;4.336;2022-09-09T08:15:09;18.00;99.90
21487;DHT22;10905;50.822;4.336;2022-09-09T08:17:34;18.20;99.90
21487;DHT22;10905;50.822;4.336;2022-09-09T08:20:00;18.40;99.90
21487;DHT22;10905;50.822;4.336;2022-09-09T08:22:30;18.20;99.90
21487;DHT22;10905;50.822;4.336;2022-09-09T08:24:55;18.20;99.90
21487;DHT22;10905;50.822;4.336;2022-09-09T08:27:21;18.30;99.90
21487;DHT22;10905;50.822;4.336;2022-09-09T08:29:48;18.40;99.90
21487;DHT22;10905;50.822;4.336;2022-09-09T08:32:13;18.40;99.90
21487;DHT22;10905;50.822;4.336;2022-09-09T08:34:39;18.20;99.90
21487;DHT22;10905;50.822;4.336;2022-09-09T08:37:06;18.30;99.90
21487;DHT22;10905;50.822;4.336;2022-09-09T08:39:31;18.30;99.90
21487;DHT22;10905;50.822;4.336;2022-09-09T08:49:54;18.10;99.90
21487;DHT22;10905;50.822;4.336;2022-09-09T08:52:24;18.10;99.90
21487;DHT22;10905;50.822;4.336;2022-09-09T08:54:50;18.10;99.90
21487;DHT22;10905;50.822;4.336;2022-09-09T08:57:21;18.10;99.90
21487;DHT22;10905;50.822;4.336;2022-09-09T08:59:49;18.10;99.90
21487;DHT22;10905;50.822;4.336;2022-09-09T09:04:53;18.00;99.90
21487;DHT22;10905;50.822;4.336;2022-09-09T09:07:24;17.80;99.90
21487;DHT22;10905;50.822;4.336;2022-09-09T09:12:41;17.90;99.90
21487;DHT22;10905;50.822;4.336;2022-09-09T09:15:54;17.90;99.90
21487;DHT22;10905;50.822;4.336;2022-09-09T09:17:54;17.90;99.90
21487;DHT22;10905;50.822;4.336;2022-09-09T09:20:28;17.80;99.90
21487;DHT22;10905;50.822;4.336;2022-09-09T09:22:57;17.70;99.90
21487;DHT22;10905;50.822;4.336;2022-09-09T09:25:34;17.60;99.90
21487;DHT22;10905;50.822;4.336;2022-09-09T09:28:02;17.70;99.90
21487;DHT22;10905;50.822;4.336;2022-09-09T09:30:34;17.60;99.90
21487;DHT22;10905;50.822;4.336;2022-09-09T09:33:02;17.50;99.90
21487;DHT22;10905;50.822;4.336;2022-09-09T09:35:28;17.50;99.90
21487;DHT22;10905;50.822;4.336;2022-09-09T09:37:53;17.50;99.90
21487;DHT22;10905;50.822;4.336;2022-09-09T09:40:20;17.40;99.90
21487;DHT22;10905;50.822;4.336;2022-09-09T09:42:50;17.40;99.90
21487;DHT22;10905;50.822;4.336;2022-09-09T09:47:46;17.50;99.90
21487;DHT22;10905;50.822;4.336;2022-09-09T09:50:22;17.60;99.90
21487;DHT22;10905;50.822;4.336;2022-09-09T09:52:54;17.70;99.90
21487;DHT22;10905;50.822;4.336;2022-09-09T09:55:21;17.60;99.90
21487;DHT22;10905;50.822;4.336;2022-09-09T09:57:47;17.70;99.90
21487;DHT22;10905;50.822;4.336;2022-09-09T10:02:40;17.70;99.90
21487;DHT22;10905;50.822;4.336;2022-09-09T10:07:34;17.80;99.90
21487;DHT22;10905;50.822;4.336;2022-09-09T10:09:59;17.80;99.90
21487;DHT22;10905;50.822;4.336;2022-09-09T10:12:38;17.80;99.90
21487;DHT22;10905;50.822;4.336;2022-09-09T10:18:02;17.90;99.90
21487;DHT22;10905;50.822;4.336;2022-09-09T10:20:36;17.90;99.90
21487;DHT22;10905;50.822;4.336;2022-09-09T10:23:08;17.90;99.90
21487;DHT22;10905;50.822;4.336;2022-09-09T10:25:48;17.90;99.90
21487;DHT22;10905;50.822;4.336;2022-09-09T10:30:56;18.10;99.90
21487;DHT22;10905;50.822;4.336;2022-09-09T10:33:37;18.20;99.90
21487;DHT22;10905;50.822;4.336;2022-09-09T10:36:12;18.40;99.90
21487;DHT22;10905;50.822;4.336;2022-09-09T10:38:42;18.50;99.90
21487;DHT22;10905;50.822;4.336;2022-09-09T10:43:56;18.90;99.90
21487;DHT22;10905;50.822;4.336;2022-09-09T10:52:01;19.30;99.90
21487;DHT22;10905;50.822;4.336;2022-09-09T10:57:08;19.60;99.90
21487;DHT22;10905;50.822;4.336;2022-09-09T10:59:44;19.70;99.90
21487;DHT22;10905;50.822;4.336;2022-09-09T11:02:16;19.80;99.90
21487;DHT22;10905;50.822;4.336;2022-09-09T11:04:55;19.80;99.90
21487;DHT22;10905;50.822;4.336;2022-09-09T11:07:29;19.70;99.90
21487;DHT22;10905;50.822;4.336;2022-09-09T11:10:01;19.60;99.90
21487;DHT22;10905;50.822;4.336;2022-09-09T11:12:27;19.60;99.90
21487;DHT22;10905;50.822;4.336;2022-09-09T11:14:56;19.70;99.90
21487;DHT22;10905;50.822;4.336;2022-09-09T11:17:26;19.60;99.90
21487;DHT22;10905;50.822;4.336;2022-09-09T11:19:55;19.60;99.90
21487;DHT22;10905;50.822;4.336;2022-09-09T11:25:34;19.60;99.90
21487;DHT22;10905;50.822;4.336;2022-09-09T11:30:29;19.60;99.90
21487;DHT22;10905;50.822;4.336;2022-09-09T11:33:06;19.60;99.90
21487;DHT22;10905;50.822;4.336;2022-09-09T11:38:25;19.60;99.90
21487;DHT22;10905;50.822;4.336;2022-09-09T11:41:04;19.60;99.90
21487;DHT22;10905;50.822;4.336;2022-09-09T11:43:41;19.50;99.90
21487;DHT22;10905;50.822;4.336;2022-09-09T11:46:07;19.60;99.90
21487;DHT22;10905;50.822;4.336;2022-09-09T11:48:38;19.80;99.90
21487;DHT22;10905;50.822;4.336;2022-09-09T11:51:08;19.80;99.90
21487;DHT22;10905;50.822;4.336;2022-09-09T11:53:35;19.90;99.90
21487;DHT22;10905;50.822;4.336;2022-09-09T11:56:05;19.80;99.90
21487;DHT22;10905;50.822;4.336;2022-09-09T11:58:33;19.80;99.90
21487;DHT22;10905;50.822;4.336;2022-09-09T12:01:01;19.60;99.90
21487;DHT22;10905;50.822;4.336;2022-09-09T12:03:48;19.60;99.90
21487;DHT22;10905;50.822;4.336;2022-09-09T12:06:25;19.70;99.90
21487;DHT22;10905;50.822;4.336;2022-09-09T12:08:52;19.70;99.90
21487;DHT22;10905;50.822;4.336;2022-09-09T12:11:29;19.70;99.90
21487;DHT22;10905;50.822;4.336;2022-09-09T12:13:56;19.70;99.90
21487;DHT22;10905;50.822;4.336;2022-09-09T12:19:03;19.40;99.90
21487;DHT22;10905;50.822;4.336;2022-09-09T12:24:14;19.40;99.90
21487;DHT22;10905;50.822;4.336;2022-09-09T12:32:09;19.40;99.90
21487;DHT22;10905;50.822;4.336;2022-09-09T12:34:39;19.60;99.90
21487;DHT22;10905;50.822;4.336;2022-09-09T12:37:06;19.80;99.90
21487;DHT22;10905;50.822;4.336;2022-09-09T12:39:39;19.90;99.90
21487;DHT22;10905;50.822;4.336;2022-09-09T12:42:17;20.00;99.90
21487;DHT22;10905;50.822;4.336;2022-09-09T12:44:56;20.00;99.90
21487;DHT22;10905;50.822;4.336;2022-09-09T12:47:24;20.00;99.90
21487;DHT22;10905;50.822;4.336;2022-09-09T12:49:51;20.10;99.90
21487;DHT22;10905;50.822;4.336;2022-09-09T12:52:19;20.20;99.90
21487;DHT22;10905;50.822;4.336;2022-09-09T12:54:47;20.40;99.90
21487;DHT22;10905;50.822;4.336;2022-09-09T12:57:13;20.30;99.90
21487;DHT22;10905;50.822;4.336;2022-09-09T12:59:40;20.30;99.90
21487;DHT22;10905;50.822;4.336;2022-09-09T13:02:23;20.20;99.90
21487;DHT22;10905;50.822;4.336;2022-09-09T13:04:49;20.30;99.90
21487;DHT22;10905;50.822;4.336;2022-09-09T13:07:16;20.30;99.90
21487;DHT22;10905;50.822;4.336;2022-09-09T13:09:42;20.20;99.90
21487;DHT22;10905;50.822;4.336;2022-09-09T13:12:21;20.40;99.90
21487;DHT22;10905;50.822;4.336;2022-09-09T13:14:48;20.50;99.90
21487;DHT22;10905;50.822;4.336;2022-09-09T13:17:15;20.30;99.90
21487;DHT22;10905;50.822;4.336;2022-09-09T13:19:43;20.40;99.90
21487;DHT22;10905;50.822;4.336;2022-09-09T13:22:14;20.40;99.90
21487;DHT22;10905;50.822;4.336;2022-09-09T13:24:43;20.60;99.90
21487;DHT22;10905;50.822;4.336;2022-09-09T13:29:53;20.60;99.90
21487;DHT22;10905;50.822;4.336;2022-09-09T13:32:22;20.80;99.90
21487;DHT22;10905;50.822;4.336;2022-09-09T13:34:52;21.00;99.90
21487;DHT22;10905;50.822;4.336;2022-09-09T13:37:39;21.10;99.90
21487;DHT22;10905;50.822;4.336;2022-09-09T13:40:12;21.10;99.90
21487;DHT22;10905;50.822;4.336;2022-09-09T13:42:41;21.30;99.90
21487;DHT22;10905;50.822;4.336;2022-09-09T13:45:18;21.40;99.90
21487;DHT22;10905;50.822;4.336;2022-09-09T13:47:45;21.30;99.90
21487;DHT22;10905;50.822;4.336;2022-09-09T13:52:45;21.20;99.90
21487;DHT22;10905;50.822;4.336;2022-09-09T13:55:11;21.30;99.90
21487;DHT22;10905;50.822;4.336;2022-09-09T13:57:36;21.30;99.90
21487;DHT22;10905;50.822;4.336;2022-09-09T14:00:02;21.30;99.90
21487;DHT22;10905;50.822;4.336;2022-09-09T14:02:28;21.30;99.90
21487;DHT22;10905;50.822;4.336;2022-09-09T14:04:53;21.30;99.90
21487;DHT22;10905;50.822;4.336;2022-09-09T14:07:20;21.40;99.90
21487;DHT22;10905;50.822;4.336;2022-09-09T14:09:46;21.60;99.90
21487;DHT22;10905;50.822;4.336;2022-09-09T14:12:15;21.50;99.90
21487;DHT22;10905;50.822;4.336;2022-09-09T14:14:41;21.50;99.90
21487;DHT22;10905;50.822;4.336;2022-09-09T14:17:09;21.30;99.90
21487;DHT22;10905;50.822;4.336;2022-09-09T14:19:35;21.30;99.90
21487;DHT22;10905;50.822;4.336;2022-09-09T14:22:00;21.10;99.90
21487;DHT22;10905;50.822;4.336;2022-09-09T14:24:26;21.10;99.90
21487;DHT22;10905;50.822;4.336;2022-09-09T14:26:52;21.10;99.90
21487;DHT22;10905;50.822;4.336;2022-09-09T14:29:17;20.90;99.90
21487;DHT22;10905;50.822;4.336;2022-09-09T14:31:43;20.90;99.90
21487;DHT22;10905;50.822;4.336;2022-09-09T14:34:08;21.10;99.90
21487;DHT22;10905;50.822;4.336;2022-09-09T14:36:35;21.30;99.90
21487;DHT22;10905;50.822;4.336;2022-09-09T14:39:01;21.30;99.90
21487;DHT22;10905;50.822;4.336;2022-09-09T14:41:26;21.30;99.90
21487;DHT22;10905;50.822;4.336;2022-09-09T14:43:52;21.10;99.90
21487;DHT22;10905;50.822;4.336;2022-09-09T14:46:19;21.20;99.90
21487;DHT22;10905;50.822;4.336;2022-09-09T14:48:45;21.20;99.90
21487;DHT22;10905;50.822;4.336;2022-09-09T14:51:14;21.30;99.90
21487;DHT22;10905;50.822;4.336;2022-09-09T14:53:41;21.50;99.90
21487;DHT22;10905;50.822;4.336;2022-09-09T14:56:14;21.60;99.90
21487;DHT22;10905;50.822;4.336;2022-09-09T14:58:39;21.60;99.90
21487;DHT22;10905;50.822;4.336;2022-09-09T15:01:06;21.70;99.90
21487;DHT22;10905;50.822;4.336;2022-09-09T15:03:33;21.50;99.90
21487;DHT22;10905;50.822;4.336;2022-09-09T15:05:58;21.50;99.90
21487;DHT22;10905;50.822;4.336;2022-09-09T15:08:24;21.40;99.90
21487;DHT22;10905;50.822;4.336;2022-09-09T15:10:50;21.40;99.90
21487;DHT22;10905;50.822;4.336;2022-09-09T15:13:15;21.40;99.90
21487;DHT22;10905;50.822;4.336;2022-09-09T15:15:44;21.40;99.90
21487;DHT22;10905;50.822;4.336;2022-09-09T15:18:09;21.20;99.90
21487;DHT22;10905;50.822;4.336;2022-09-09T15:20:35;21.10;99.90
21487;DHT22;10905;50.822;4.336;2022-09-09T15:23:02;21.10;99.90
21487;DHT22;10905;50.822;4.336;2022-09-09T15:25:28;21.10;99.90
21487;DHT22;10905;50.822;4.336;2022-09-09T15:27:54;20.90;99.90
21487;DHT22;10905;50.822;4.336;2022-09-09T15:30:21;20.80;99.90
21487;DHT22;10905;50.822;4.336;2022-09-09T15:32:47;20.80;99.90
21487;DHT22;10905;50.822;4.336;2022-09-09T15:35:12;20.70;99.90
21487;DHT22;10905;50.822;4.336;2022-09-09T15:37:37;20.70;99.90
21487;DHT22;10905;50.822;4.336;2022-09-09T15:40:03;20.80;99.90
21487;DHT22;10905;50.822;4.336;2022-09-09T15:42:29;20.80;99.90
21487;DHT22;10905;50.822;4.336;2022-09-09T15:44:55;20.90;99.90
21487;DHT22;10905;50.822;4.336;2022-09-09T15:47:20;21.10;99.90
21487;DHT22;10905;50.822;4.336;2022-09-09T15:49:46;21.40;99.90
21487;DHT22;10905;50.822;4.336;2022-09-09T15:52:11;21.60;99.90
21487;DHT22;10905;50.822;4.336;2022-09-09T15:54:37;21.60;99.90
21487;DHT22;10905;50.822;4.336;2022-09-09T15:57:06;21.80;99.90
21487;DHT22;10905;50.822;4.336;2022-09-09T15:59:32;21.70;99.90
21487;DHT22;10905;50.822;4.336;2022-09-09T16:01:59;21.80;99.90
21487;DHT22;10905;50.822;4.336;2022-09-09T16:04:25;21.60;99.90
21487;DHT22;10905;50.822;4.336;2022-09-09T16:06:51;21.40;99.90
21487;DHT22;10905;50.822;4.336;2022-09-09T16:09:17;21.30;99.90
21487;DHT22;10905;50.822;4.336;2022-09-09T16:11:43;21.00;99.90
21487;DHT22;10905;50.822;4.336;2022-09-09T16:14:08;20.70;99.90
21487;DHT22;10905;50.822;4.336;2022-09-09T16:16:34;20.50;99.90
21487;DHT22;10905;50.822;4.336;2022-09-09T16:19:02;20.50;99.90
21487;DHT22;10905;50.822;4.336;2022-09-09T16:21:35;20.40;99.90
21487;DHT22;10905;50.822;4.336;2022-09-09T16:24:03;20.30;99.90
21487;DHT22;10905;50.822;4.336;2022-09-09T16:26:29;20.30;99.90
21487;DHT22;10905;50.822;4.336;2022-09-09T16:28:55;19.80;99.90
21487;DHT22;10905;50.822;4.336;2022-09-09T16:31:22;19.50;99.90
21487;DHT22;10905;50.822;4.336;2022-09-09T16:33:48;19.10;99.90
21487;DHT22;10905;50.822;4.336;2022-09-09T16:36:15;19.00;99.90
21487;DHT22;10905;50.822;4.336;2022-09-09T16:38:41;19.00;99.90
21487;DHT22;10905;50.822;4.336;2022-09-09T16:41:07;19.00;99.90
21487;DHT22;10905;50.822;4.336;2022-09-09T16:43:33;19.00;99.90
21487;DHT22;10905;50.822;4.336;2022-09-09T16:45:59;19.00;99.90
21487;DHT22;10905;50.822;4.336;2022-09-09T16:48:31;19.00;99.90
21487;DHT22;10905;50.822;4.336;2022-09-09T16:51:02;19.00;99.90
21487;DHT22;10905;50.822;4.336;2022-09-09T16:53:27;18.90;99.90
21487;DHT22;10905;50.822;4.336;2022-09-09T16:55:53;19.00;99.90
21487;DHT22;10905;50.822;4.336;2022-09-09T16:58:18;19.10;99.90
21487;DHT22;10905;50.822;4.336;2022-09-09T17:00:44;19.00;99.90
21487;DHT22;10905;50.822;4.336;2022-09-09T17:03:12;18.90;99.90
21487;DHT22;10905;50.822;4.336;2022-09-09T17:05:41;18.90;99.90
21487;DHT22;10905;50.822;4.336;2022-09-09T17:08:06;18.90;99.90
21487;DHT22;10905;50.822;4.336;2022-09-09T17:10:32;18.80;99.90